ADDS METAR Data INFO
IDs: Format: Raw Decoded Include TAF

Data at: 1952 UTC 15 Dec 2017

KCAG 151853Z AUTO 00000KT 10SM CLR 01/M09 A3024 RMK AO2 SLP305 T00061094
KCAG 151753Z AUTO 00000KT 10SM CLR M03/M09 A3028 RMK AO2 SLP327 T10331094 11033 21178 58007
KCAG 151653Z AUTO 25004KT 10SM CLR M09/M11 A3032 RMK AO2 SLP360 T10891111
KCAG 151553Z AUTO 00000KT 10SM CLR M12/M13 A3032 RMK AO2 SLP361 T11171133
KCAG 151453Z AUTO 00000KT 10SM CLR M16/M19 A3031 RMK AO2 SLP363 T11611189 55003
KCAG 151353Z AUTO 27004KT 10SM CLR M17/M19 A3031 RMK AO2 SLP359 T11671194
KCAG 151253Z AUTO 26004KT 10SM CLR M16/M18 A3031 RMK AO2 SLP351 T11561183
KCAG 151153Z AUTO 00000KT 10SM CLR M17/M19 A3032 RMK AO2 SLP355 T11671194 11144 21172 58010
KCAG 151053Z AUTO 28005KT 10SM CLR M17/M19 A3033 RMK AO2 SLP352 T11671194
KCAG 150953Z AUTO 22003KT 10SM CLR M16/M18 A3035 RMK AO2 SLP342 T11561183
KCAG 150853Z AUTO 00000KT 10SM CLR M16/M18 A3036 RMK AO2 SLP344 T11561183 56005
KCAG 150753Z AUTO 00000KT 10SM CLR M16/M19 A3036 RMK AO2 SLP347 T11611194
KCAG 150653Z AUTO 00000KT 10SM CLR M16/M19 A3036 RMK AO2 SLP350 T11611189 400221167
KCAG 150553Z AUTO 00000KT 10SM CLR M15/M18 A3037 RMK AO2 SLP359 T11501183 11056 21161 53006
KCAG 150453Z AUTO 00000KT 10SM CLR M16/M17 A3037 RMK AO2 SLP362 T11561172
KCAG 150353Z AUTO 00000KT 7SM CLR M14/M17 A3036 RMK AO2 SLP363 T11391172
KCAG 150253Z AUTO 13003KT 10SM CLR M12/M14 A3035 RMK AO2 SLP360 T11221144 53008
KCAG 150153Z AUTO 00000KT 10SM FEW040 M11/M13 A3035 RMK AO2 SLP350 T11061128
KCAG 150053Z AUTO 00000KT 10SM CLR M08/M12 A3032 RMK AO2 SLP326 T10831122
KCAG 142353Z AUTO 19005KT 10SM CLR M07/M11 A3032 RMK AO2 SLP320 T10671111 10022 21067 55001
KCAG 142253Z AUTO 20006KT 10SM CLR M04/M09 A3032 RMK AO2 SLP316 T10441094
KCAG 142153Z AUTO 00000KT 10SM OVC050 01/M09 A3032 RMK AO2 SLP295 T00111089
KCAG 142053Z AUTO 33009KT 10SM SCT055 01/M08 A3033 RMK AO2 SLP294 T00111083 55002
KCAG 141953Z AUTO 31013G20KT 10SM CLR 01/M08 A3032 RMK AO2 SLP291 T00061078
KCAG 141853Z AUTO 33014G19KT 10SM CLR 00/M08 A3032 RMK AO2 SLP295 T00001078
KCAG 141753Z AUTO 24010KT 10SM CLR M03/M07 A3033 RMK AO2 SLP306 T10281067 11028 21100 51011
KCAG 141653Z AUTO 22006KT 10SM CLR M04/M07 A3033 RMK AO2 SLP311 T10441072
KCAG 141553Z AUTO 22009KT 10SM CLR M08/M11 A3032 RMK AO2 SLP309 T10781106
KCAG 141453Z AUTO 21008KT 10SM CLR M09/M12 A3030 RMK AO2 SLP305 T10941117 51027
KCAG 141353Z AUTO 22004KT 10SM CLR M08/M11 A3027 RMK AO2 SLP296 T10781111
KCAG 141253Z AUTO 00000KT 10SM CLR M04/M09 A3025 RMK AO2 SLP274 T10441089
KCAG 141153Z AUTO 22003KT 10SM CLR M03/M07 A3020 RMK AO2 SLP252 60004 70014 T10331072 11006 21061 53016
KCAG 141053Z AUTO VRB03KT 10SM CLR M04/M08 A3017 RMK AO2 SLP243 T10441078
KCAG 140953Z AUTO 00000KT 10SM BKN090 OVC110 M02/M05 A3016 RMK AO2 SNE05 SLP234 P0000 T10221050
KCAG 140853Z AUTO VRB03KT 4SM -SN BR OVC032 M01/M03 A3014 RMK AO2 SNB0755 SLP226 P0001 60004 T10111028 55000
KCAG 140851Z AUTO 00000KT 4SM -SN BR FEW018 OVC030 M01/M03 A3014 RMK AO2 SNB0755 P0001
KCAG 140845Z AUTO VRB03KT 2 1/2SM -SN BR FEW010 FEW018 OVC024 M01/M03 A3014 RMK AO2 SNB0755 P0001 T10111028
KCAG 140827Z AUTO 26003KT 1 3/4SM -SN BR SCT013 OVC019 M01/M03 A3014 RMK AO2 SNB0755 P0001 T10111028
KCAG 140804Z AUTO 26003KT 2 1/2SM -SN BR BKN013 OVC060 M01/M03 A3014 RMK AO2 SNB0755 P0000 T10111028
KCAG 140753Z AUTO 24004KT 5SM BR BKN011 OVC046 M01/M03 A3014 RMK AO2 SNE52 SLP224 P0001 T10111028